Latest Weather Observations for Perth Airport

IDW60801

Issued at 11:13 pm WST Friday 23 April 2021 (issued every 10 minutes, with the page automatically refreshed every 10 minutes)

About weather observations | Map of weather stations | Latest weather observations for WA | Other Formats
Station Details ID: 009021 Name: PERTH AIRPORT Lat: -31.93 Lon: 115.98 Height: 15.4 m
Data from the previous 72 hours. | See also: Recent months at Perth Airport
Date/Time
WST
Temp
°C
App
Temp
°C
Dew
Point
°C
Rel
Hum
%
Delta-T
°C
Wind Press
QNH
hPa
Press
MSL
hPa
Rain since
9am
mm
Dir  Spd
km/h
Gust
km/h
Spd
kts
Gust
kts
23/11:00pm 14.1 13.0 10.5 79 1.9 ENE 7 9 4 5 1018.5 1018.5 0.0
23/10:30pm 14.4 14.7 11.0 80 1.8 CALM 0 0 0 0 1018.8 1018.8 0.0
23/10:00pm 15.0 15.4 11.4 79 1.9 CALM 0 0 0 0 1018.8 1018.8 0.0
23/09:30pm 15.3 15.2 12.1 81 1.7 SSW 4 9 2 5 1018.8 1018.8 0.0
23/09:00pm 15.8 14.7 12.0 78 2.1 SSW 9 9 5 5 1018.7 1018.7 0.0
23/08:30pm 17.0 16.3 12.1 73 2.7 SW 7 9 4 5 1018.5 1018.5 0.0
23/08:00pm 18.0 17.0 12.2 69 3.2 S 9 13 5 7 1018.3 1018.3 0.0
23/07:30pm 20.4 19.1 12.6 61 4.4 SW 11 13 6 7 1018.3 1018.3 0.0
23/07:00pm 20.8 20.0 13.0 61 4.4 SW 9 13 5 7 1018.1 1018.1 0.0
23/06:30pm 21.4 20.1 12.5 57 5.0 SW 11 15 6 8 1018.0 1018.0 0.0
23/06:00pm 22.3 20.8 12.0 52 5.8 SW 11 15 6 8 1017.8 1017.8 0.0
23/05:30pm 23.9 21.4 10.9 44 7.2 SSW 15 19 8 10 1017.5 1017.5 0.0
23/05:00pm 26.1 23.2 11.1 39 8.5 SW 17 22 9 12 1017.4 1017.4 0.0
23/04:30pm 26.8 24.1 10.5 36 9.2 WSW 15 19 8 10 1017.1 1017.1 0.0
23/04:00pm 28.1 26.0 6.8 26 11.3 E 7 13 4 7 1016.9 1016.9 0.0
23/03:30pm 28.3 26.4 7.5 27 11.2 ENE 7 13 4 7 1016.9 1016.9 0.0
23/03:00pm 27.9 25.9 7.2 27 11.0 ESE 7 13 4 7 1016.8 1016.8 0.0
23/02:30pm 28.1 26.3 7.9 28 10.9 E 7 15 4 8 1016.8 1016.8 0.0
23/02:00pm 27.6 25.4 8.0 29 10.6 E 9 13 5 7 1016.9 1016.9 0.0
23/01:30pm 27.4 25.3 8.3 30 10.4 NNE 9 19 5 10 1017.4 1017.4 0.0
23/01:00pm 26.9 24.7 7.9 30 10.2 E 9 17 5 9 1017.9 1017.9 0.0
23/12:30pm 27.0 25.2 10.7 36 9.2 ENE 11 20 6 11 1018.4 1018.4 0.0
23/12:00pm 25.2 22.8 9.9 38 8.4 E 13 19 7 10 1019.0 1019.0 0.0
23/11:30am 24.2 21.0 9.8 40 7.9 ESE 17 22 9 12 1019.4 1019.4 0.0
23/11:00am 23.0 19.9 9.0 41 7.5 E 15 20 8 11 1019.9 1019.9 0.0
23/10:30am 22.4 18.5 9.6 44 6.9 ENE 20 26 11 14 1020.1 1020.1 0.0
23/10:00am 21.0 16.6 8.9 46 6.4 E 22 28 12 15 1020.1 1020.1 0.0
23/09:30am 18.9 14.9 9.1 53 5.1 ENE 20 24 11 13 1020.3 1020.3 0.0
23/09:00am 18.4 14.3 8.7 53 5.0 ENE 20 28 11 15 1020.5 1020.5 0.0
23/08:30am 17.9 14.0 8.7 55 4.8 E 19 24 10 13 1020.5 1020.5 0.0
23/08:00am 17.3 13.1 8.4 56 4.5 ENE 20 26 11 14 1020.3 1020.3 0.0
23/07:30am 17.0 12.8 8.2 56 4.5 ENE 20 26 11 14 1020.1 1020.1 0.0
23/07:00am 17.0 12.8 8.2 56 4.5 E 20 26 11 14 1020.1 1020.1 0.0
23/06:30am 17.2 13.9 8.1 55 4.6 ENE 15 20 8 11 1019.8 1019.8 0.0
23/06:00am 17.3 13.7 8.2 55 4.6 ENE 17 24 9 13 1019.6 1019.6 0.0
23/05:30am 17.5 12.5 8.1 54 4.8 ENE 24 33 13 18 1019.4 1019.4 0.0
23/05:00am 17.6 13.0 8.2 54 4.8 ENE 22 32 12 17 1019.3 1019.3 0.0
23/04:30am 17.9 13.3 8.2 53 5.0 ENE 22 30 12 16 1019.3 1019.3 0.0
23/04:00am 18.2 12.8 8.2 52 5.1 ENE 26 33 14 18 1019.3 1019.3 0.0
23/03:30am 18.3 13.0 8.3 52 5.1 ENE 26 32 14 17 1019.5 1019.5 0.0
23/03:00am 18.2 13.2 8.2 52 5.1 ENE 24 32 13 17 1019.6 1019.6 0.0
23/02:30am 18.5 12.8 8.2 51 5.3 ENE 28 37 15 20 1019.9 1019.9 0.0
23/02:00am 18.5 13.1 8.2 51 5.3 E 26 35 14 19 1020.0 1020.0 0.0
23/01:30am 18.5 12.8 8.2 51 5.3 E 28 37 15 20 1020.0 1020.0 0.0
23/01:00am 18.6 12.5 8.3 51 5.3 E 30 37 16 20 1019.9 1019.9 0.0
23/12:30am 18.8 12.4 8.5 51 5.3 E 32 41 17 22 1020.2 1020.2 0.0
23/12:00am 19.1 12.7 8.7 51 5.4 E 32 43 17 23 1020.3 1020.3 0.0
 
Date/Time
WST
Temp
°C
App
Temp
°C
Dew
Point
°C
Rel
Hum
%
Delta-T
°C
Wind Press
QNH
hPa
Press
MSL
hPa
Rain since
9am
mm
Dir  Spd
km/h
Gust
km/h
Spd
kts
Gust
kts
22/11:30pm 19.1 13.1 8.7 51 5.4 E 30 39 16 21 1020.3 1020.3 0.0
22/11:00pm 19.6 13.2 8.6 49 5.7 E 32 44 17 24 1020.6 1020.6 0.0
22/10:30pm 20.0 13.9 8.4 47 6.0 E 30 44 16 24 1020.9 1020.9 0.0
22/10:00pm 19.9 15.7 8.3 47 6.0 E 20 28 11 15 1021.5 1021.5 0.0
22/09:30pm 20.4 16.4 8.4 46 6.3 E 19 35 10 19 1021.4 1021.4 0.0
22/09:00pm 20.4 15.5 8.4 46 6.2 ESE 24 35 13 19 1021.0 1021.0 0.0
22/08:30pm 20.8 16.7 8.8 46 6.3 ESE 20 30 11 16 1020.9 1020.9 0.0
22/08:00pm 21.0 17.5 8.9 46 6.4 SE 17 24 9 13 1021.0 1021.0 0.0
22/07:30pm 21.1 17.8 9.4 47 6.3 SE 17 26 9 14 1021.2 1021.2 0.0
22/07:00pm 20.7 18.1 9.3 48 6.0 SE 13 17 7 9 1021.4 1021.4 0.0
22/06:30pm 20.1 18.0 8.1 46 6.2 SE 9 13 5 7 1021.2 1021.2 0.0
22/06:00pm 20.8 18.7 8.1 44 6.6 SSE 9 13 5 7 1020.7 1020.7 0.0
22/05:30pm 22.1 19.5 7.9 40 7.4 SE 11 17 6 9 1020.3 1020.3 0.0
22/05:00pm 22.7 19.3 7.7 38 7.8 ESE 15 20 8 11 1019.8 1019.8 0.0
22/04:30pm 23.1 19.3 7.6 37 8.1 ESE 17 26 9 14 1019.8 1019.8 0.0
22/04:00pm 23.5 20.2 8.0 37 8.2 ESE 15 19 8 10 1020.4 1020.4 0.0
22/03:30pm 23.8 19.7 7.8 36 8.4 ESE 19 26 10 14 1020.4 1020.4 0.0
22/03:00pm 24.1 20.3 7.7 35 8.6 E 17 24 9 13 1020.4 1020.4 0.0
22/02:30pm 24.0 19.9 8.0 36 8.5 E 19 28 10 15 1020.7 1020.7 0.0
22/02:00pm 24.3 19.9 7.4 34 8.8 E 20 30 11 16 1020.9 1020.9 0.0
22/01:30pm 23.9 19.9 8.3 37 8.3 ENE 19 32 10 17 1021.2 1021.2 0.0
22/01:00pm 24.0 19.9 8.0 36 8.4 ENE 19 26 10 14 1021.7 1021.7 0.0
22/12:30pm 24.6 20.5 8.5 36 8.6 E 20 30 11 16 1022.3 1022.3 0.0
22/12:00pm 22.8 18.9 9.6 43 7.1 NE 20 30 11 16 1022.9 1022.9 0.0
22/11:30am 22.5 18.6 9.3 43 7.1 ENE 20 30 11 16 1023.2 1023.2 0.0
22/11:00am 22.1 17.7 10.3 47 6.4 ENE 24 32 13 17 1023.6 1023.6 0.0
22/10:30am 20.7 16.7 10.5 52 5.5 E 22 28 12 15 1024.0 1024.0 0.0
22/10:00am 20.0 16.5 10.1 53 5.3 E 19 28 10 15 1024.3 1024.3 0.0
22/09:30am 18.8 13.8 10.9 60 4.3 ENE 28 35 15 19 1024.6 1024.6 0.0
22/09:00am 18.1 14.3 11.2 64 3.7 ENE 22 28 12 15 1024.9 1024.9 0.0
22/08:30am 17.1 13.7 11.2 68 3.2 ENE 20 30 11 16 1024.6 1024.6 0.0
22/08:00am 15.6 13.5 11.0 74 2.4 ENE 13 20 7 11 1024.5 1024.5 0.0
22/07:30am 15.5 11.6 10.9 74 2.4 ENE 22 33 12 18 1024.0 1024.0 0.0
22/07:00am 15.1 10.5 10.9 76 2.2 ENE 26 37 14 20 1023.6 1023.6 0.0
22/06:30am 15.0 10.4 11.0 77 2.1 ENE 26 35 14 19 1023.5 1023.5 0.0
22/06:00am 15.1 10.5 11.1 77 2.1 E 26 41 14 22 1023.1 1023.1 0.0
22/05:30am 15.1 11.3 11.1 77 2.1 ENE 22 32 12 17 1023.5 1023.5 0.0
22/05:00am 15.3 10.8 11.3 77 2.1 E 26 39 14 21 1023.0 1023.0 0.0
22/04:30am 15.4 13.4 11.4 77 2.1 E 13 20 7 11 1022.7 1022.7 0.0
22/04:00am 15.4 12.6 11.2 76 2.2 E 17 28 9 15 1022.8 1022.8 0.0
22/03:00am 15.5 11.9 10.5 72 2.6 E 20 32 11 17 1023.1 1023.1 0.0
22/02:30am 15.9 11.4 10.2 69 3.0 E 24 32 13 17 1023.3 1023.3 0.0
22/02:00am 16.4 12.8 9.8 65 3.4 E 19 33 10 18 1023.3 1023.3 0.0
22/01:30am 16.3 13.2 9.0 62 3.8 ENE 15 20 8 11 1023.4 1023.4 0.0
22/01:00am 15.8 12.6 8.3 61 3.8 ENE 15 22 8 12 1023.4 1023.4 0.0
22/12:30am 14.8 11.2 6.6 58 4.0 ESE 15 20 8 11 1023.4 1023.4 0.0
22/12:00am 12.6 9.1 7.3 70 2.6 SSE 15 19 8 10 1023.6 1023.6 0.0
 
Date/Time
WST
Temp
°C
App
Temp
°C
Dew
Point
°C
Rel
Hum
%
Delta-T
°C
Wind Press
QNH
hPa
Press
MSL
hPa
Rain since
9am
mm
Dir  Spd
km/h
Gust
km/h
Spd
kts
Gust
kts
21/11:30pm 12.4 10.0 7.1 70 2.6 E 9 9 5 5 1023.7 1023.7 0.0
21/11:00pm 13.1 11.3 7.1 67 2.9 ENE 6 9 3 5 1024.0 1024.0 0.0
21/10:30pm 14.0 12.3 7.5 65 3.2 SE 6 9 3 5 1024.4 1024.4 0.0
21/10:00pm 14.8 13.2 7.8 63 3.5 E 6 9 3 5 1024.4 1024.4 0.0
21/09:30pm 14.7 12.5 8.0 64 3.3 ESE 9 13 5 7 1024.0 1024.0 0.0
21/09:00pm 16.1 13.5 7.8 58 4.1 ESE 11 13 6 7 1023.7 1023.7 0.0
21/08:30pm 16.8 13.9 8.0 56 4.5 E 13 13 7 7 1023.7 1023.7 0.0
21/08:00pm 17.4 14.7 9.1 58 4.3 ESE 13 15 7 8 1023.5 1023.5 0.0
21/07:30pm 17.7 15.2 9.6 59 4.3 ESE 13 15 7 8 1023.3 1023.3 0.0
21/07:00pm 18.3 16.2 9.6 57 4.6 ESE 11 13 6 7 1023.1 1023.1 0.0
21/06:30pm 19.9 17.3 9.2 50 5.7 SE 13 15 7 8 1022.9 1022.9 0.0
21/06:00pm 21.9 19.5 8.8 43 6.9 ESE 11 13 6 7 1022.4 1022.4 0.0
21/05:30pm 23.4 19.9 8.7 39 7.9 ESE 17 20 9 11 1022.2 1022.2 0.0
21/05:00pm 24.6 21.8 8.5 36 8.6 ESE 13 20 7 11 1022.1 1022.1 0.0
21/04:30pm 25.2 21.7 8.7 35 8.9 ESE 17 24 9 13 1022.1 1022.1 0.0
21/04:00pm 25.8 22.7 8.8 34 9.2 ESE 15 24 8 13 1022.0 1022.0 0.0
21/03:30pm 26.2 23.5 9.1 34 9.3 ESE 13 19 7 10 1021.7 1021.7 0.0
21/03:00pm 25.7 22.3 9.1 35 9.0 E 17 28 9 15 1021.8 1021.8 0.0
21/02:30pm 25.5 22.9 9.3 36 8.9 E 13 19 7 10 1021.8 1021.8 0.0
21/02:00pm 25.4 22.8 9.3 36 8.8 SE 13 20 7 11 1021.9 1021.9 0.0
21/01:30pm 24.6 22.4 9.3 38 8.3 SE 11 22 6 12 1022.1 1022.1 0.0
21/01:00pm 24.9 21.8 10.4 40 8.0 ESE 17 28 9 15 1022.4 1022.4 0.0
21/12:30pm 24.2 21.5 10.5 42 7.6 ESE 15 22 8 12 1023.0 1023.0 0.0
21/12:00pm 24.0 21.1 11.0 44 7.2 ENE 17 26 9 14 1023.3 1023.3 0.0
21/11:30am 23.6 21.2 11.3 46 6.9 ENE 15 26 8 14 1023.3 1023.3 0.0
21/11:00am 22.9 20.5 11.3 48 6.4 ENE 15 22 8 12 1023.5 1023.5 0.0
21/10:30am 21.9 19.1 11.3 51 5.9 E 17 26 9 14 1023.4 1023.4 0.0
21/10:00am 20.6 17.2 11.2 55 5.2 ENE 20 28 11 15 1023.5 1023.5 0.0
21/09:30am 19.6 16.8 11.4 59 4.5 ENE 17 26 9 14 1023.6 1023.6 0.0
21/09:00am 18.6 16.5 12.4 67 3.4 ENE 15 24 8 13 1023.9 1023.9 0.0
21/08:30am 17.8 15.1 11.6 67 3.4 NE 17 24 9 13 1023.8 1023.8 0.0
21/08:00am 17.5 17.8 12.2 71 2.9 NNE 2 11 1 6 1023.6 1023.6 0.0
21/07:30am 16.2 14.6 11.4 73 2.6 N 11 17 6 9 1023.3 1023.3 0.0
21/07:00am 15.0 15.0 11.2 78 2.0 N 2 11 1 6 1023.2 1023.2 0.0
21/06:30am 15.5 15.3 11.7 78 2.1 S 4 9 2 5 1022.9 1022.9 0.0
21/06:00am 15.4 14.6 11.0 75 2.3 SW 6 9 3 5 1022.6 1022.6 0.0
21/05:30am 15.0 15.2 11.8 81 1.7 WNW 2 9 1 5 1022.4 1022.4 0.0
21/05:00am 12.6 11.6 11.0 90 0.8 WNW 7 9 4 5 1022.2 1022.2 0.0
21/04:30am 12.1 11.0 10.8 92 0.7 NNW 7 9 4 5 1022.0 1022.0 0.0
21/04:00am 12.2 10.4 10.8 91 0.7 S 11 17 6 9 1021.7 1021.7 0.0
21/03:30am 13.2 13.8 11.8 91 0.7 CALM 0 6 0 3 1021.7 1021.7 0.0
21/03:00am 12.1 11.6 10.7 91 0.7 NW 4 9 2 5 1021.7 1021.7 0.0
21/02:30am 12.8 10.5 10.5 86 1.2 SW 13 15 7 8 1021.9 1021.9 0.0
21/02:00am 12.9 10.8 11.0 88 1.0 SSW 13 19 7 10 1021.9 1021.9 0.0
21/01:30am 12.9 10.7 10.8 87 1.1 SSW 13 15 7 8 1021.9 1021.9 0.0
21/01:00am 13.0 10.7 10.5 85 1.3 SSW 13 17 7 9 1021.8 1021.8 0.0
21/12:30am 14.2 12.2 12.6 90 0.9 SSW 15 17 8 9 1021.6 1021.6 0.0
21/12:00am 12.6 10.6 10.1 85 1.3 SSW 11 13 6 7 1021.5 1021.5 0.0
 
Date/Time
WST
Temp
°C
App
Temp
°C
Dew
Point
°C
Rel
Hum
%
Delta-T
°C
Wind Press
QNH
hPa
Press
MSL
hPa
Rain since
9am
mm
Dir  Spd
km/h
Gust
km/h
Spd
kts
Gust
kts
20/11:30pm 15.2 13.5 12.3 83 1.6 SSW 13 15 7 8 1021.6 1021.6 0.0

Other formats

Comma delimited format used in spreadsheet applications
http://www.bom.gov.au/fwo/IDW60801/IDW60801.94610.axf

JavaScript Object Notation format (JSON) in row-major order
http://www.bom.gov.au/fwo/IDW60801/IDW60801.94610.json

Data quality

Most of these data are generated automatically and are frequently updated. Quality checks on data are not normally performed. It is possible for incorrect values to appear. Refer to information at About Latest Weather Observations and please check the disclaimer before using these data.